ADDS METAR Data INFO
IDs: Format: Raw Decoded Include TAF

Data at: 1940 UTC 17 Feb 2018

KECP 171853Z 10SM BKN023 BKN033 OVC050 24/18 A3015 RMK AO2 SLP221 T02440178
KECP 171753Z 19011G22KT 10SM BKN018 BKN050 24/18 A3016 RMK AO2 SLP226 T02440178 10256 20194 50001
KECP 171653Z 16014KT 10SM BKN018 BKN050 24/19 A3018 RMK AO2 SLP230 T02440189
KECP 171607Z 17013KT 10SM BKN013 OVC050 23/19 A3017 RMK AO2 T02330194
KECP 171600Z COR 16012KT 10SM BKN013 OVC050 23/19 A3017 RMK AO2 T02330194
KECP 171553Z 16013G20KT 10SM BKN006 BKN010 23/19 A3017 RMK AO2 SLP228 T02330194
KECP 171453Z 18007KT 10SM BKN005 BKN018 21/21 A3016 RMK AO2 CIG 003V009 SLP224 T02110206 51006
KECP 171440Z 16008KT 10SM OVC005 21/20 A3016 RMK AO2 CIG 002V009 T02060200
KECP 171353Z 18005KT 5SM BR OVC002 21/20 A3016 RMK AO2 SLP223 T02060200
KECP 171348Z 18004KT 5SM BR OVC002 21/20 A3015 RMK AO2
KECP 171340Z 17003KT 2 1/2SM BR OVC002 21/20 A3015 RMK AO2 T02060200
KECP 171324Z 17004KT 1 3/4SM BR OVC002 20/19 A3015 RMK AO2 T02000194
KECP 171318Z 17003KT 3SM BR OVC003 20/19 A3015 RMK AO2 T02000194
KECP 171305Z 00000KT 2 1/2SM BR OVC003 20/19 A3015 RMK AO2 T02000194
KECP 171253Z 18003KT 3SM BR OVC003 19/19 A3014 RMK AO2 SLP219 T01940189
KECP 171206Z 18003KT 7SM OVC004 20/19 A3013 RMK AO2 T02000194
KECP 171153Z 16003KT 6SM BR OVC006 19/19 A3013 RMK AO2 CIG 004V010 SLP215 T01940189 10200 20178 53005
KECP 171140Z AUTO 00000KT 3SM BR BKN004 OVC008 19/19 A3013 RMK AO2 T01940189
KECP 171135Z AUTO 15003KT 1 1/2SM BR BKN005 OVC008 19/19 A3013 RMK AO2 T01940189
KECP 171101Z AUTO 17003KT 1 3/4SM BR BKN002 OVC016 19/19 A3012 RMK AO2 T01940189
KECP 171053Z AUTO 18003KT 4SM BR BKN002 OVC016 19/19 A3012 RMK AO2 SLP212 T01940189
KECP 171001Z AUTO 17003KT 4SM BR BKN003 BKN010 OVC014 19/19 A3012 RMK AO2 T01940194
KECP 170953Z AUTO 18003KT 2 1/2SM BR BKN003 OVC010 20/19 A3012 RMK AO2 SLP210 T02000194
KECP 170949Z AUTO 18003KT 1 1/2SM BR BKN003 OVC010 20/19 A3012 RMK AO2
KECP 170919Z AUTO 16003KT 1/2SM FG VV002 19/19 A3012 RMK AO2 T01940194
KECP 170853Z AUTO 00000KT 1/4SM FG VV002 19/19 A3012 RMK AO2 SLP210 T01940194 56004
KECP 170851Z AUTO 18003KT 1/4SM FG VV002 19/19 A3012 RMK AO2
KECP 170836Z AUTO 00000KT 1/2SM FG VV002 19/19 A3012 RMK AO2 T01940194
KECP 170828Z AUTO 00000KT 1/4SM FG VV002 19/19 A3012 RMK AO2 T01940194
KECP 170753Z AUTO 20004KT 1/4SM FG VV001 19/19 A3012 RMK AO2 SLP211 T01940189
KECP 170735Z AUTO 19004KT 1/4SM FG VV001 19/19 A3012 RMK AO2 T01890189
KECP 170653Z AUTO 18003KT 1/4SM FG VV002 18/18 A3013 RMK AO2 SLP214 T01830178
KECP 170649Z AUTO 17003KT 1/4SM FG VV002 18/18 A3013 RMK AO2
KECP 170615Z AUTO 00000KT 1/4SM FG VV001 18/17 A3014 RMK AO2 T01780172
KECP 170553Z AUTO 00000KT 1/2SM FG VV003 18/17 A3013 RMK AO2 SLP215 60000 T01780172 10211 20161 402720161 53001
KECP 170548Z AUTO 00000KT 1/2SM FG VV003 18/17 A3013 RMK AO2
KECP 170540Z AUTO 00000KT 1SM BR VV004 17/17 A3013 RMK AO2 T01720172
KECP 170533Z AUTO 00000KT 2SM BR OVC004 18/17 A3013 RMK AO2 VIS 1V4 T01780172
KECP 170525Z AUTO 00000KT 4SM BR BKN004 OVC008 18/17 A3013 RMK AO2 T01780167
KECP 170453Z AUTO 14004KT 3SM BR OVC007 17/16 A3013 RMK AO2 SLP214 T01670156
KECP 170448Z AUTO 14005KT 2 1/2SM BR OVC007 16/16 A3013 RMK AO2
KECP 170440Z AUTO 00000KT 3/4SM BR VV008 17/16 A3013 RMK AO2 T01720161
KECP 170433Z AUTO 00000KT 2 1/2SM BR BKN008 17/16 A3013 RMK AO2 T01720161
KECP 170430Z AUTO 00000KT 3SM BR BKN010 17/16 A3013 RMK AO2 T01720161
KECP 170353Z AUTO 00000KT 8SM CLR 17/17 A3013 RMK AO2 SLP215 T01720167
KECP 170253Z 00000KT 10SM CLR 18/17 A3013 RMK AO2 SLP214 60000 T01780167 51007
KECP 170153Z 23004KT 10SM CLR 19/18 A3013 RMK AO2 SLP213 T01890178
KECP 170053Z 23004KT 10SM CLR 19/18 A3012 RMK AO2 RAB15E24B50E53 SLP211 P0000 T01940178
KECP 162353Z 23006KT 10SM CLR 21/17 A3011 RMK AO2 RAB12E50 SLP207 P0000 60000 T02110172 10272 20211 53005
KECP 162253Z 24010KT 10SM CLR 23/17 A3010 RMK AO2 PK WND 26036/2231 RAB26E52 SLP204 P0000 T02280172
KECP 162153Z 22012KT 10SM CLR 25/17 A3009 RMK AO2 SLP202 T02500172
KECP 162053Z 26009KT 10SM SCT034 26/17 A3009 RMK AO2 SLP202 60000 T02610167 56019
KECP 161953Z COR 27009KT 10SM SCT034 27/16 A3010 RMK AO2 SLP204 T02670161
KECP 161853Z 25017G21KT 10SM FEW040 26/15 A3013 RMK AO2 RAE53 SLP213 P0000 T02610150
KECP 161753Z COR 25013KT 10SM SCT034 SCT046 26/17 A3015 RMK AO2 RAB16 SLP221 P0000 60000 T02560172 10261 20211 58013
KECP 161653Z 25013G19KT 10SM BKN032 BKN044 26/17 A3017 RMK AO2 SLP229 T02560167
KECP 161553Z 22012KT 10SM SCT026 BKN033 24/18 A3019 RMK AO2 SLP234 T02440183
KECP 161548Z 22012KT 10SM SCT024 BKN030 24/18 A3019 RMK AO2
KECP 161453Z COR 22008KT 10SM SCT013 23/19 A3018 RMK AO2 SLP231 T02330194 51010
KECP 161353Z 21006KT 10SM BKN007 OVC050 21/20 A3018 RMK AO2 SLP231 T02110200
KECP 161253Z 21008KT 10SM OVC005 21/20 A3016 RMK AO2 CIG 004V009 SLP225 T02110200
KECP 161153Z 19007KT 10SM OVC006 21/20 A3015 RMK AO2 SLP221 T02110200 10211 20194 53008
KECP 161144Z AUTO 19006KT 10SM OVC006 21/20 A3015 RMK AO2 CIG 003V008 T02110200
KECP 161053Z AUTO 19007KT 8SM OVC003 21/20 A3014 RMK AO2 SLP216 T02060200
KECP 160953Z AUTO 18010KT 7SM OVC002 21/20 A3012 RMK AO2 SLP212 T02060200
KECP 160853Z AUTO 18008KT 7SM OVC002 21/19 A3012 RMK AO2 SLP212 T02060194 58017
KECP 160753Z AUTO 15006KT 7SM OVC003 20/19 A3014 RMK AO2 SLP218 T02000194